createdAt,value
2022-09-28T00:01:22.591Z,10.57
2022-09-28T00:03:55.269Z,10.18
2022-09-28T00:06:30.744Z,10.98
2022-09-28T00:09:07.507Z,11.00
2022-09-28T00:11:37.042Z,11.13
2022-09-28T00:14:08.477Z,10.88
2022-09-28T00:16:45.873Z,10.38
2022-09-28T00:19:18.463Z,10.13
2022-09-28T00:21:50.088Z,10.60
2022-09-28T00:24:27.348Z,9.90
2022-09-28T00:26:58.916Z,10.68
2022-09-28T00:29:36.516Z,9.38
2022-09-28T00:32:14.754Z,9.05
2022-09-28T00:34:49.782Z,8.68
2022-09-28T00:37:20.609Z,7.82
2022-09-28T00:39:50.398Z,8.23
2022-09-28T00:42:22.484Z,7.38
2022-09-28T00:44:56.828Z,7.55
2022-09-28T00:47:44.620Z,7.32
2022-09-28T00:50:46.888Z,7.13
2022-09-28T00:53:26.921Z,6.45
2022-09-28T00:56:08.332Z,6.90
2022-09-28T00:58:45.224Z,6.05
2022-09-28T01:01:15.698Z,6.03
2022-09-28T01:03:49.666Z,6.43
2022-09-28T01:06:23.379Z,6.75
2022-09-28T01:08:59.338Z,6.13
2022-09-28T01:11:45.911Z,5.45
2022-09-28T01:14:21.860Z,5.00
2022-09-28T01:17:23.635Z,5.90
2022-09-28T01:20:40.710Z,5.38
2022-09-28T01:23:50.409Z,4.97
2022-09-28T01:26:34.651Z,5.25
2022-09-28T01:29:25.479Z,5.07
2022-09-28T01:32:22.612Z,5.32
2022-09-28T01:35:06.663Z,5.50
2022-09-28T01:37:53.980Z,5.30
2022-09-28T01:40:31.210Z,5.05
2022-09-28T01:43:28.006Z,5.28
2022-09-28T01:46:21.603Z,5.25
2022-09-28T01:49:12.205Z,4.85
2022-09-28T01:51:52.535Z,5.00
2022-09-28T01:54:51.460Z,4.60
2022-09-28T01:57:56.099Z,5.60
2022-09-28T02:00:32.266Z,4.85
2022-09-28T02:03:33.067Z,4.43
2022-09-28T02:06:17.228Z,4.90
2022-09-28T02:08:57.787Z,5.15
2022-09-28T02:11:55.317Z,5.22
2022-09-28T02:14:41.017Z,4.88
2022-09-28T02:17:15.274Z,5.20
2022-09-28T02:19:48.274Z,5.10
2022-09-28T02:22:54.512Z,5.05
2022-09-28T02:25:52.864Z,5.03
2022-09-28T02:28:33.048Z,5.65
2022-09-28T02:31:06.214Z,5.63
2022-09-28T02:33:39.476Z,5.68
2022-09-28T02:36:19.079Z,5.35
2022-09-28T02:38:49.819Z,5.43
2022-09-28T02:41:52.545Z,5.13
2022-09-28T02:45:23.048Z,5.47
2022-09-28T02:48:36.115Z,4.78
2022-09-28T02:56:29.520Z,4.68
2022-09-28T02:59:32.239Z,4.82
2022-09-28T03:02:20.229Z,4.57
2022-09-28T03:05:07.263Z,4.50
2022-09-28T03:07:58.604Z,4.22
2022-09-28T03:10:47.827Z,4.10
2022-09-28T03:13:17.970Z,3.92
2022-09-28T03:15:48.990Z,4.03
2022-09-28T03:18:19.800Z,4.88
2022-09-28T03:20:50.570Z,4.22
2022-09-28T03:23:24.834Z,4.35
2022-09-28T03:25:57.990Z,4.30
2022-09-28T03:28:28.066Z,4.25
2022-09-28T03:31:05.860Z,4.18
2022-09-28T03:33:54.100Z,4.03
2022-09-28T03:37:12.639Z,3.70
2022-09-28T03:39:51.224Z,3.83
2022-09-28T03:42:26.637Z,4.70
2022-09-28T03:44:57.575Z,4.05
2022-09-28T03:47:36.265Z,4.25
2022-09-28T03:50:08.030Z,4.00
2022-09-28T03:52:37.640Z,4.10
2022-09-28T03:55:07.349Z,4.03
2022-09-28T03:57:45.156Z,3.78
2022-09-28T04:00:15.614Z,3.88
2022-09-28T04:02:48.433Z,4.00
2022-09-28T04:05:17.832Z,4.43
2022-09-28T04:07:47.288Z,4.13
2022-09-28T04:10:16.839Z,4.35
2022-09-28T04:12:46.889Z,4.10
2022-09-28T04:15:17.291Z,4.60
2022-09-28T04:17:46.699Z,5.20
2022-09-28T04:20:34.264Z,4.03
2022-09-28T04:23:20.964Z,4.30
2022-09-28T04:25:54.409Z,4.30
2022-09-28T04:28:46.809Z,4.10
2022-09-28T04:31:22.049Z,4.45
2022-09-28T04:33:51.507Z,3.85
2022-09-28T04:36:24.110Z,4.40
2022-09-28T04:38:54.460Z,4.25
2022-09-28T04:41:26.286Z,4.40
2022-09-28T04:43:55.601Z,4.60
2022-09-28T04:46:27.274Z,4.47
2022-09-28T04:49:22.993Z,4.05
2022-09-28T04:51:56.180Z,4.22
2022-09-28T04:54:25.768Z,3.85
2022-09-28T04:56:56.314Z,3.85
2022-09-28T04:59:27.038Z,3.30
2022-09-28T05:01:56.565Z,3.88
2022-09-28T05:05:03.128Z,3.63
2022-09-28T05:07:47.060Z,4.00
2022-09-28T05:10:16.964Z,3.95
2022-09-28T05:12:46.152Z,4.28
2022-09-28T05:15:15.356Z,3.80
2022-09-28T05:17:44.779Z,3.78
2022-09-28T05:20:30.773Z,4.00
2022-09-28T05:23:00.198Z,3.97
2022-09-28T05:25:29.792Z,4.03
2022-09-28T05:28:25.901Z,3.65
2022-09-28T05:31:16.145Z,3.47
2022-09-28T05:34:11.724Z,3.70
2022-09-28T05:36:43.548Z,3.67
2022-09-28T05:39:13.234Z,3.35
2022-09-28T05:41:42.622Z,4.20
2022-09-28T05:44:11.669Z,3.83
2022-09-28T05:46:41.122Z,3.58
2022-09-28T05:49:11.726Z,3.47
2022-09-28T05:51:41.105Z,3.13
2022-09-28T05:54:11.141Z,3.60
2022-09-28T05:56:44.153Z,3.10
2022-09-28T05:59:14.346Z,4.10
2022-09-28T06:01:44.406Z,3.45
2022-09-28T06:04:15.525Z,3.72
2022-09-28T06:06:45.738Z,3.50
2022-09-28T06:09:15.448Z,3.90
2022-09-28T06:12:03.067Z,3.63
2022-09-28T06:14:41.186Z,3.60
2022-09-28T06:17:10.661Z,3.70
2022-09-28T06:19:40.249Z,3.67
2022-09-28T06:22:19.157Z,3.35
2022-09-28T06:24:56.998Z,3.88
2022-09-28T06:27:26.962Z,3.40
2022-09-28T06:29:56.532Z,3.50
2022-09-28T06:32:26.022Z,3.42
2022-09-28T06:34:56.488Z,3.17
2022-09-28T06:37:28.649Z,3.42
2022-09-28T06:39:58.583Z,3.53
2022-09-28T06:42:28.049Z,3.45
2022-09-28T06:45:22.755Z,3.50
2022-09-28T06:48:08.117Z,2.90
2022-09-28T06:50:44.654Z,3.25
2022-09-28T06:53:26.570Z,3.42
2022-09-28T06:56:03.659Z,3.73
2022-09-28T06:58:33.193Z,3.22
2022-09-28T07:01:08.035Z,3.40
2022-09-28T07:03:46.094Z,3.42
2022-09-28T07:06:29.712Z,3.40
2022-09-28T07:09:32.602Z,3.80
2022-09-28T07:12:25.342Z,3.63
2022-09-28T07:14:58.224Z,3.20
2022-09-28T07:17:31.114Z,3.47
2022-09-28T07:20:14.371Z,3.13
2022-09-28T07:22:49.260Z,3.90
2022-09-28T07:25:23.364Z,3.50
2022-09-28T07:28:07.895Z,3.10
2022-09-28T07:31:00.017Z,3.05
2022-09-28T07:33:52.181Z,3.50
2022-09-28T07:36:37.460Z,3.25
2022-09-28T07:39:16.221Z,4.28
2022-09-28T07:41:45.407Z,3.45
2022-09-28T07:44:14.567Z,3.60
2022-09-28T07:46:44.300Z,3.40
2022-09-28T07:49:23.840Z,3.90
2022-09-28T07:52:16.096Z,3.40
2022-09-28T07:55:07.181Z,3.45
2022-09-28T07:58:03.185Z,3.42
2022-09-28T08:00:52.812Z,3.78
2022-09-28T08:03:25.389Z,4.00
2022-09-28T08:06:02.969Z,3.35
2022-09-28T08:08:34.398Z,3.63
2022-09-28T08:11:04.697Z,3.60
2022-09-28T08:13:56.351Z,3.35
2022-09-28T08:17:06.291Z,3.60
2022-09-28T08:20:13.917Z,3.78
2022-09-28T08:22:43.831Z,3.47
2022-09-28T08:25:13.465Z,4.07
2022-09-28T08:27:42.685Z,3.22
2022-09-28T08:30:13.366Z,3.47
2022-09-28T08:33:02.742Z,3.50
2022-09-28T08:35:44.349Z,3.22
2022-09-28T08:38:23.984Z,3.50
2022-09-28T08:41:18.042Z,3.40
2022-09-28T08:44:25.969Z,3.08
2022-09-28T08:47:59.645Z,3.40
2022-09-28T08:51:01.476Z,3.50
2022-09-28T08:54:12.046Z,3.22
2022-09-28T08:57:00.883Z,3.80
2022-09-28T08:59:54.813Z,3.88
2022-09-28T09:02:37.646Z,3.60
2022-09-28T09:05:24.324Z,3.47
2022-09-28T09:08:19.978Z,3.42
2022-09-28T09:11:38.080Z,3.33
2022-09-28T09:14:28.705Z,3.08
2022-09-28T09:17:01.852Z,3.22
2022-09-28T09:20:13.663Z,3.40
2022-09-28T09:23:19.415Z,3.28
2022-09-28T09:25:55.871Z,3.45
2022-09-28T09:28:52.573Z,3.38
2022-09-28T09:34:19.957Z,3.40
2022-09-28T09:37:00.696Z,3.20
2022-09-28T09:40:11.890Z,3.20
2022-09-28T09:43:38.357Z,2.88
2022-09-28T09:46:40.504Z,3.57
2022-09-28T09:49:50.359Z,3.40
2022-09-28T09:55:17.788Z,3.45
2022-09-28T09:58:03.513Z,3.08
2022-09-28T10:00:48.610Z,3.22
2022-09-28T10:03:49.085Z,3.30
2022-09-28T10:06:37.847Z,3.70
2022-09-28T10:09:18.348Z,3.42
2022-09-28T10:11:51.115Z,3.53
2022-09-28T10:14:25.940Z,3.80
2022-09-28T10:17:04.733Z,3.35
2022-09-28T10:19:52.284Z,3.90
2022-09-28T10:22:48.155Z,3.72
2022-09-28T10:25:21.156Z,3.42
2022-09-28T10:27:53.441Z,3.20
2022-09-28T10:30:26.827Z,3.47
2022-09-28T10:33:00.093Z,3.00
2022-09-28T10:35:45.113Z,3.50
2022-09-28T10:38:19.064Z,3.45
2022-09-28T10:41:22.154Z,3.28
2022-09-28T10:44:08.270Z,3.60
2022-09-28T10:46:58.285Z,3.85
2022-09-28T10:49:31.341Z,3.50
2022-09-28T10:52:00.803Z,3.47
2022-09-28T10:54:35.827Z,3.70
2022-09-28T10:57:24.908Z,3.40
2022-09-28T11:00:01.175Z,3.05
2022-09-28T11:02:42.474Z,3.53
2022-09-28T11:05:24.076Z,3.33
2022-09-28T11:07:58.408Z,3.45
2022-09-28T11:10:35.502Z,3.40
2022-09-28T11:13:15.590Z,3.60
2022-09-28T11:15:52.337Z,3.45
2022-09-28T11:18:33.251Z,3.65
2022-09-28T11:21:44.208Z,4.00
2022-09-28T11:24:19.319Z,3.88
2022-09-28T11:26:53.838Z,3.47
2022-09-28T11:29:39.412Z,3.10
2022-09-28T11:32:41.353Z,3.33
2022-09-28T11:35:35.255Z,3.60
2022-09-28T11:38:26.427Z,3.75
2022-09-28T11:41:34.172Z,3.78
2022-09-28T11:44:30.858Z,3.20
2022-09-28T11:47:28.068Z,3.50
2022-09-28T11:50:43.295Z,3.50
2022-09-28T11:53:15.640Z,3.42
2022-09-28T11:56:27.789Z,3.60
2022-09-28T11:59:01.749Z,3.30
2022-09-28T12:01:50.672Z,4.05
2022-09-28T12:04:34.449Z,3.88
2022-09-28T12:07:17.362Z,4.03
2022-09-28T12:10:12.815Z,4.20
2022-09-28T12:13:05.445Z,3.88
2022-09-28T12:16:06.882Z,3.67
2022-09-28T12:18:43.259Z,4.00
2022-09-28T12:21:30.853Z,4.00
2022-09-28T12:24:14.755Z,3.75
2022-09-28T12:26:53.250Z,3.60
2022-09-28T12:29:29.606Z,3.28
2022-09-28T12:32:13.880Z,3.10
2022-09-28T12:34:44.264Z,3.90
2022-09-28T12:37:42.473Z,3.60
2022-09-28T12:40:28.004Z,3.67
2022-09-28T12:43:15.892Z,3.58
2022-09-28T12:46:12.432Z,3.67
2022-09-28T12:52:38.787Z,3.88
2022-09-28T12:55:25.096Z,3.40
2022-09-28T12:57:59.200Z,3.85
2022-09-28T13:00:40.921Z,4.07
2022-09-28T13:03:43.457Z,3.83
2022-09-28T13:06:15.639Z,3.78
2022-09-28T13:09:21.051Z,3.35
2022-09-28T13:11:59.687Z,3.83
2022-09-28T13:14:59.152Z,4.28
2022-09-28T13:17:41.560Z,3.30
2022-09-28T13:20:33.640Z,3.85
2022-09-28T13:23:26.592Z,3.70
2022-09-28T13:26:11.882Z,3.70
2022-09-28T13:28:46.261Z,3.97
2022-09-28T13:31:21.800Z,3.58
2022-09-28T13:33:52.487Z,3.90
2022-09-28T13:36:27.895Z,3.50
2022-09-28T13:39:02.134Z,3.95
2022-09-28T13:41:37.823Z,3.40
2022-09-28T13:44:17.736Z,3.35
2022-09-28T13:46:47.245Z,3.10
2022-09-28T13:49:33.685Z,3.50
2022-09-28T13:53:00.628Z,3.78
2022-09-28T13:55:38.155Z,3.40
2022-09-28T13:58:35.754Z,4.10
2022-09-28T14:01:08.277Z,4.25
2022-09-28T14:04:12.794Z,4.20
2022-09-28T14:06:53.552Z,4.13
2022-09-28T14:09:42.684Z,4.43
2022-09-28T14:12:36.552Z,4.07
2022-09-28T14:15:31.645Z,3.65
2022-09-28T14:18:27.279Z,3.63
2022-09-28T14:20:59.548Z,4.55
2022-09-28T14:23:57.559Z,4.22
2022-09-28T14:26:44.966Z,4.10
2022-09-28T14:29:30.545Z,4.30
2022-09-28T14:32:13.256Z,4.30
2022-09-28T14:34:52.606Z,3.80
2022-09-28T14:37:44.914Z,3.92
2022-09-28T14:40:49.976Z,4.75
2022-09-28T14:43:47.030Z,4.80
2022-09-28T14:46:16.601Z,6.32
2022-09-28T14:48:52.224Z,7.25
2022-09-28T14:51:41.619Z,4.10
2022-09-28T14:54:19.942Z,4.13
2022-09-28T14:56:57.985Z,4.60
2022-09-28T14:59:37.155Z,4.68
2022-09-28T15:02:12.462Z,4.97
2022-09-28T15:05:14.160Z,4.75
2022-09-28T15:07:50.385Z,4.70
2022-09-28T15:10:32.581Z,5.38
2022-09-28T15:13:26.863Z,6.70
2022-09-28T15:16:11.055Z,5.63
2022-09-28T15:19:04.979Z,5.05
2022-09-28T15:21:40.913Z,5.22
2022-09-28T15:24:34.619Z,5.05
2022-09-28T15:27:14.906Z,5.38
2022-09-28T15:29:58.865Z,5.00
2022-09-28T15:32:30.460Z,5.00
2022-09-28T15:35:18.150Z,6.07
2022-09-28T15:37:52.919Z,6.38
2022-09-28T15:40:39.097Z,5.75
2022-09-28T15:43:29.933Z,5.27
2022-09-28T15:46:09.736Z,5.80
2022-09-28T15:48:56.369Z,6.78
2022-09-28T15:51:26.961Z,6.93
2022-09-28T15:53:59.306Z,5.38
2022-09-28T15:56:29.759Z,6.20
2022-09-28T15:59:17.349Z,6.00
2022-09-28T16:01:47.139Z,6.05
2022-09-28T16:04:41.106Z,4.72
2022-09-28T16:07:24.671Z,5.07
2022-09-28T16:10:08.577Z,4.82
2022-09-28T16:12:38.888Z,5.55
2022-09-28T16:15:35.282Z,5.30
2022-09-28T16:18:26.603Z,5.22
2022-09-28T16:21:02.166Z,5.13
2022-09-28T16:23:35.248Z,4.85
2022-09-28T16:26:18.782Z,6.28
2022-09-28T16:28:52.694Z,6.25
2022-09-28T16:31:22.119Z,5.03
2022-09-28T16:33:57.014Z,4.18
2022-09-28T16:36:40.280Z,4.97
2022-09-28T16:39:12.601Z,4.65
2022-09-28T16:41:45.895Z,5.22
2022-09-28T16:44:25.782Z,4.07
2022-09-28T16:46:58.629Z,4.80
2022-09-28T16:49:29.178Z,4.55
2022-09-28T16:51:58.391Z,4.80
2022-09-28T16:54:45.732Z,5.15
2022-09-28T16:57:16.693Z,4.80
2022-09-28T16:59:46.861Z,4.75
2022-09-28T17:05:12.023Z,4.80
2022-09-28T17:07:48.045Z,4.40
2022-09-28T17:10:50.060Z,4.50
2022-09-28T17:16:12.881Z,4.65
2022-09-28T17:18:43.139Z,4.82
2022-09-28T17:21:22.114Z,4.75
2022-09-28T17:23:51.768Z,5.15
2022-09-28T17:26:34.347Z,4.80
2022-09-28T17:29:04.038Z,4.95
2022-09-28T17:31:33.235Z,5.30
2022-09-28T17:34:02.697Z,4.75
2022-09-28T17:36:31.886Z,4.70
2022-09-28T17:39:01.481Z,4.80
2022-09-28T17:41:30.564Z,4.60
2022-09-28T17:44:01.130Z,4.72
2022-09-28T17:46:39.667Z,4.78
2022-09-28T17:49:13.077Z,4.38
2022-09-28T17:51:42.693Z,4.03
2022-09-28T17:54:17.387Z,3.53
2022-09-28T17:56:49.703Z,3.50
2022-09-28T17:59:21.727Z,2.80
2022-09-28T18:01:54.125Z,2.75
2022-09-28T18:04:50.181Z,2.83
2022-09-28T18:07:18.264Z,3.03
2022-09-28T18:09:57.778Z,2.78
2022-09-28T18:12:30.077Z,2.60
2022-09-28T18:15:01.161Z,2.55
2022-09-28T18:17:31.055Z,2.80
2022-09-28T18:20:00.878Z,2.50
2022-09-28T18:22:31.114Z,2.85
2022-09-28T18:25:01.206Z,3.00
2022-09-28T18:27:37.070Z,3.63
2022-09-28T18:30:08.793Z,2.90
2022-09-28T18:32:40.130Z,3.67
2022-09-28T18:35:29.616Z,3.70
2022-09-28T18:38:00.230Z,3.70
2022-09-28T18:40:29.887Z,4.03
2022-09-28T18:43:00.037Z,4.75
2022-09-28T18:45:31.274Z,4.35
2022-09-28T18:48:03.536Z,4.07
2022-09-28T18:50:36.365Z,4.03
2022-09-28T18:53:14.615Z,4.43
2022-09-28T18:55:45.707Z,3.97
2022-09-28T18:58:15.127Z,5.10
2022-09-28T19:00:44.706Z,4.72
2022-09-28T19:03:16.383Z,4.85
2022-09-28T19:05:47.134Z,4.40
2022-09-28T19:08:19.036Z,4.85
2022-09-28T19:10:49.534Z,4.43
2022-09-28T19:13:18.716Z,4.65
2022-09-28T19:15:49.708Z,4.57
2022-09-28T19:18:18.990Z,4.60
2022-09-28T19:20:49.388Z,5.22
2022-09-28T19:23:19.134Z,4.93
2022-09-28T19:25:48.349Z,5.55
2022-09-28T19:28:17.598Z,4.90
2022-09-28T19:31:10.495Z,4.80
2022-09-28T19:33:41.806Z,4.72
2022-09-28T19:36:17.562Z,4.40
2022-09-28T19:38:47.603Z,4.53
2022-09-28T19:41:43.673Z,4.93
2022-09-28T19:44:25.700Z,4.95
2022-09-28T19:47:01.661Z,4.45
2022-09-28T19:49:34.056Z,5.00
2022-09-28T19:52:18.977Z,4.70
2022-09-28T19:54:57.591Z,4.68
2022-09-28T19:57:33.581Z,5.00
2022-09-28T20:00:09.777Z,4.90
2022-09-28T20:02:43.220Z,4.95
2022-09-28T20:05:17.591Z,4.65
2022-09-28T20:07:49.650Z,5.75
2022-09-28T20:10:19.372Z,5.75
2022-09-28T20:12:49.395Z,6.30
2022-09-28T20:15:18.763Z,6.60
2022-09-28T20:17:50.858Z,6.03
2022-09-28T20:20:23.391Z,6.45
2022-09-28T20:22:54.348Z,6.65
2022-09-28T20:25:25.542Z,6.70
2022-09-28T20:27:58.256Z,7.15
2022-09-28T20:30:27.532Z,6.35
2022-09-28T20:33:28.964Z,6.22
2022-09-28T20:36:00.238Z,6.07
2022-09-28T20:38:29.866Z,5.97
2022-09-28T20:41:03.696Z,5.35
2022-09-28T20:43:35.841Z,6.20
2022-09-28T20:46:07.355Z,5.57
2022-09-28T20:48:36.656Z,5.50
2022-09-28T20:51:24.285Z,4.78
2022-09-28T20:53:56.328Z,5.25
2022-09-28T20:56:38.974Z,4.60
2022-09-28T20:59:39.629Z,4.47
2022-09-28T21:02:14.128Z,4.80
2022-09-28T21:05:11.981Z,4.28
2022-09-28T21:07:41.418Z,4.10
2022-09-28T21:10:11.179Z,3.40
2022-09-28T21:12:43.237Z,3.53
2022-09-28T21:15:14.254Z,3.88
2022-09-28T21:17:46.845Z,3.15
2022-09-28T21:20:19.745Z,2.97
2022-09-28T21:22:48.980Z,3.17
2022-09-28T21:25:20.982Z,3.00
2022-09-28T21:27:51.396Z,3.33
2022-09-28T21:30:21.057Z,3.65
2022-09-28T21:32:53.047Z,3.30
2022-09-28T21:35:22.568Z,3.40
2022-09-28T21:37:51.788Z,3.50
2022-09-28T21:40:21.379Z,3.13
2022-09-28T21:42:50.688Z,3.33
2022-09-28T21:45:21.349Z,3.72
2022-09-28T21:47:54.041Z,3.78
2022-09-28T21:50:25.062Z,3.10
2022-09-28T21:52:56.216Z,3.67
2022-09-28T21:55:25.714Z,3.42
2022-09-28T21:57:54.762Z,3.50
2022-09-28T22:00:27.222Z,3.22
2022-09-28T22:02:58.012Z,3.28
2022-09-28T22:05:27.465Z,3.47
2022-09-28T22:07:56.515Z,3.45
2022-09-28T22:10:25.788Z,4.07
2022-09-28T22:12:54.924Z,3.50
2022-09-28T22:15:24.540Z,3.35
2022-09-28T22:17:53.636Z,3.40
2022-09-28T22:20:23.543Z,3.72
2022-09-28T22:22:55.538Z,3.72
2022-09-28T22:25:24.824Z,3.50
2022-09-28T22:27:54.087Z,3.63
2022-09-28T22:30:23.508Z,3.30
2022-09-28T22:32:52.613Z,3.17
2022-09-28T22:35:21.789Z,3.30
2022-09-28T22:37:51.074Z,4.03
2022-09-28T22:40:21.054Z,3.95
2022-09-28T22:42:50.420Z,3.72
2022-09-28T22:45:20.022Z,3.33
2022-09-28T22:47:49.428Z,3.97
2022-09-28T22:50:21.694Z,3.83
2022-09-28T22:52:52.253Z,3.60
2022-09-28T22:55:22.968Z,3.53
2022-09-28T22:57:52.261Z,4.45
2022-09-28T23:00:24.305Z,3.97
2022-09-28T23:02:53.622Z,3.45
2022-09-28T23:05:22.782Z,3.75
2022-09-28T23:07:52.260Z,3.65
2022-09-28T23:10:24.565Z,4.03
2022-09-28T23:12:57.255Z,3.50
2022-09-28T23:15:27.096Z,3.00
2022-09-28T23:17:57.196Z,3.42
2022-09-28T23:20:26.919Z,3.50
2022-09-28T23:22:56.137Z,3.53
2022-09-28T23:25:25.326Z,3.35
2022-09-28T23:27:54.534Z,3.58
2022-09-28T23:30:25.940Z,4.00
2022-09-28T23:32:55.102Z,3.60
2022-09-28T23:35:29.713Z,3.58
2022-09-28T23:37:59.134Z,3.65
2022-09-28T23:40:28.493Z,3.20
2022-09-28T23:42:58.003Z,3.40
2022-09-28T23:45:34.380Z,3.08
2022-09-28T23:50:33.347Z,2.95
2022-09-28T23:53:24.916Z,3.08
2022-09-28T23:56:00.413Z,2.95
2022-09-28T23:58:34.540Z,3.00
